sensor_id;sensor_type;location;lat;lon;timestamp;temperature;humidity
17956;DHT22;27666;51.498;11.966;2023-06-05T00:02:37;16.00;63.60
17956;DHT22;27666;51.498;11.966;2023-06-05T00:05:24;16.00;63.50
17956;DHT22;27666;51.498;11.966;2023-06-05T00:08:12;16.00;63.50
17956;DHT22;27666;51.498;11.966;2023-06-05T00:10:59;16.00;63.50
17956;DHT22;27666;51.498;11.966;2023-06-05T00:13:45;16.00;63.20
17956;DHT22;27666;51.498;11.966;2023-06-05T00:16:32;16.00;63.50
17956;DHT22;27666;51.498;11.966;2023-06-05T00:19:18;16.00;63.50
17956;DHT22;27666;51.498;11.966;2023-06-05T00:22:05;15.90;63.70
17956;DHT22;27666;51.498;11.966;2023-06-05T00:24:53;15.90;64.00
17956;DHT22;27666;51.498;11.966;2023-06-05T00:27:39;15.90;63.90
17956;DHT22;27666;51.498;11.966;2023-06-05T00:30:26;15.80;64.20
17956;DHT22;27666;51.498;11.966;2023-06-05T00:33:12;15.80;64.30
17956;DHT22;27666;51.498;11.966;2023-06-05T00:35:59;15.70;64.50
17956;DHT22;27666;51.498;11.966;2023-06-05T00:38:45;15.70;64.50
17956;DHT22;27666;51.498;11.966;2023-06-05T00:41:33;15.60;64.60
17956;DHT22;27666;51.498;11.966;2023-06-05T00:44:19;15.60;64.80
17956;DHT22;27666;51.498;11.966;2023-06-05T00:47:05;15.60;64.80
17956;DHT22;27666;51.498;11.966;2023-06-05T00:49:52;15.60;65.10
17956;DHT22;27666;51.498;11.966;2023-06-05T00:52:39;15.50;65.30
17956;DHT22;27666;51.498;11.966;2023-06-05T00:55:27;15.50;65.40
17956;DHT22;27666;51.498;11.966;2023-06-05T00:58:15;15.50;65.60
17956;DHT22;27666;51.498;11.966;2023-06-05T01:01:02;15.40;65.60
17956;DHT22;27666;51.498;11.966;2023-06-05T01:03:50;15.40;65.90
17956;DHT22;27666;51.498;11.966;2023-06-05T01:06:38;15.40;66.00
17956;DHT22;27666;51.498;11.966;2023-06-05T01:09:26;15.40;65.90
17956;DHT22;27666;51.498;11.966;2023-06-05T01:12:17;15.30;65.80
17956;DHT22;27666;51.498;11.966;2023-06-05T01:15:08;15.30;66.00
17956;DHT22;27666;51.498;11.966;2023-06-05T01:17:55;15.20;66.10
17956;DHT22;27666;51.498;11.966;2023-06-05T01:20:42;15.30;66.20
17956;DHT22;27666;51.498;11.966;2023-06-05T01:23:29;15.20;66.10
17956;DHT22;27666;51.498;11.966;2023-06-05T01:26:19;15.20;66.30
17956;DHT22;27666;51.498;11.966;2023-06-05T01:29:11;15.20;66.40
17956;DHT22;27666;51.498;11.966;2023-06-05T01:32:05;15.10;66.50
17956;DHT22;27666;51.498;11.966;2023-06-05T01:34:53;15.10;66.80
17956;DHT22;27666;51.498;11.966;2023-06-05T01:37:41;15.10;66.90
17956;DHT22;27666;51.498;11.966;2023-06-05T01:40:33;15.00;67.20
17956;DHT22;27666;51.498;11.966;2023-06-05T01:43:20;14.90;67.50
17956;DHT22;27666;51.498;11.966;2023-06-05T01:46:08;14.90;67.90
17956;DHT22;27666;51.498;11.966;2023-06-05T01:48:55;14.80;68.00
17956;DHT22;27666;51.498;11.966;2023-06-05T01:51:42;14.80;68.30
17956;DHT22;27666;51.498;11.966;2023-06-05T01:54:28;14.70;68.50
17956;DHT22;27666;51.498;11.966;2023-06-05T01:57:19;14.60;68.70
17956;DHT22;27666;51.498;11.966;2023-06-05T02:00:07;14.60;68.90
17956;DHT22;27666;51.498;11.966;2023-06-05T02:02:57;14.60;69.10
17956;DHT22;27666;51.498;11.966;2023-06-05T02:05:44;14.60;69.20
17956;DHT22;27666;51.498;11.966;2023-06-05T02:08:31;14.60;69.30
17956;DHT22;27666;51.498;11.966;2023-06-05T02:11:17;14.60;69.50
17956;DHT22;27666;51.498;11.966;2023-06-05T02:14:06;14.60;69.80
17956;DHT22;27666;51.498;11.966;2023-06-05T02:16:52;14.50;70.00
17956;DHT22;27666;51.498;11.966;2023-06-05T02:19:39;14.50;70.90
17956;DHT22;27666;51.498;11.966;2023-06-05T02:22:26;14.40;70.60
17956;DHT22;27666;51.498;11.966;2023-06-05T02:25:13;14.40;70.80
17956;DHT22;27666;51.498;11.966;2023-06-05T02:28:00;14.30;71.20
17956;DHT22;27666;51.498;11.966;2023-06-05T02:30:47;14.30;71.40
17956;DHT22;27666;51.498;11.966;2023-06-05T02:33:34;14.20;71.60
17956;DHT22;27666;51.498;11.966;2023-06-05T02:36:21;14.20;71.80
17956;DHT22;27666;51.498;11.966;2023-06-05T02:39:09;14.10;72.20
17956;DHT22;27666;51.498;11.966;2023-06-05T02:41:56;14.10;72.70
17956;DHT22;27666;51.498;11.966;2023-06-05T02:44:42;14.00;73.30
17956;DHT22;27666;51.498;11.966;2023-06-05T02:47:30;13.80;74.30
17956;DHT22;27666;51.498;11.966;2023-06-05T02:50:17;13.80;75.40
17956;DHT22;27666;51.498;11.966;2023-06-05T02:53:03;13.80;76.70
17956;DHT22;27666;51.498;11.966;2023-06-05T02:55:49;13.60;77.80
17956;DHT22;27666;51.498;11.966;2023-06-05T02:58:36;13.70;78.90
17956;DHT22;27666;51.498;11.966;2023-06-05T03:01:25;13.60;79.80
17956;DHT22;27666;51.498;11.966;2023-06-05T03:04:20;13.60;80.90
17956;DHT22;27666;51.498;11.966;2023-06-05T03:07:08;13.50;81.80
17956;DHT22;27666;51.498;11.966;2023-06-05T03:09:58;13.50;82.70
17956;DHT22;27666;51.498;11.966;2023-06-05T03:12:44;13.50;82.90
17956;DHT22;27666;51.498;11.966;2023-06-05T03:15:31;13.50;83.30
17956;DHT22;27666;51.498;11.966;2023-06-05T03:18:17;13.50;83.80
17956;DHT22;27666;51.498;11.966;2023-06-05T03:21:05;13.60;84.30
17956;DHT22;27666;51.498;11.966;2023-06-05T03:23:52;13.60;84.30
17956;DHT22;27666;51.498;11.966;2023-06-05T03:26:38;13.60;85.00
17956;DHT22;27666;51.498;11.966;2023-06-05T03:29:25;13.70;85.20
17956;DHT22;27666;51.498;11.966;2023-06-05T03:32:11;13.60;86.00
17956;DHT22;27666;51.498;11.966;2023-06-05T03:34:58;13.50;87.80
17956;DHT22;27666;51.498;11.966;2023-06-05T03:37:46;13.50;89.30
17956;DHT22;27666;51.498;11.966;2023-06-05T03:40:32;13.40;90.20
17956;DHT22;27666;51.498;11.966;2023-06-05T03:43:19;13.50;90.70
17956;DHT22;27666;51.498;11.966;2023-06-05T03:46:06;13.60;90.90
17956;DHT22;27666;51.498;11.966;2023-06-05T03:48:52;13.50;91.30
17956;DHT22;27666;51.498;11.966;2023-06-05T03:51:43;13.50;91.60
17956;DHT22;27666;51.498;11.966;2023-06-05T03:54:32;13.60;91.80
17956;DHT22;27666;51.498;11.966;2023-06-05T03:57:19;13.70;91.70
17956;DHT22;27666;51.498;11.966;2023-06-05T04:00:07;13.90;91.10
17956;DHT22;27666;51.498;11.966;2023-06-05T04:02:55;14.10;90.80
17956;DHT22;27666;51.498;11.966;2023-06-05T04:05:43;14.20;90.50
17956;DHT22;27666;51.498;11.966;2023-06-05T04:08:30;14.40;90.00
17956;DHT22;27666;51.498;11.966;2023-06-05T04:11:17;14.50;88.80
17956;DHT22;27666;51.498;11.966;2023-06-05T04:14:04;14.70;88.20
17956;DHT22;27666;51.498;11.966;2023-06-05T04:16:53;14.70;88.00
17956;DHT22;27666;51.498;11.966;2023-06-05T04:19:40;14.70;88.30
17956;DHT22;27666;51.498;11.966;2023-06-05T04:22:26;14.90;88.00
17956;DHT22;27666;51.498;11.966;2023-06-05T04:25:13;15.10;87.50
17956;DHT22;27666;51.498;11.966;2023-06-05T04:28:01;15.20;86.70
17956;DHT22;27666;51.498;11.966;2023-06-05T04:30:48;15.40;86.50
17956;DHT22;27666;51.498;11.966;2023-06-05T04:33:34;15.60;85.90
17956;DHT22;27666;51.498;11.966;2023-06-05T04:36:21;15.80;85.40
17956;DHT22;27666;51.498;11.966;2023-06-05T04:39:07;16.00;84.80
17956;DHT22;27666;51.498;11.966;2023-06-05T04:42:00;16.20;84.10
17956;DHT22;27666;51.498;11.966;2023-06-05T04:45:02;16.50;83.50
17956;DHT22;27666;51.498;11.966;2023-06-05T04:47:50;16.70;82.90
17956;DHT22;27666;51.498;11.966;2023-06-05T04:50:36;16.90;82.00
17956;DHT22;27666;51.498;11.966;2023-06-05T04:53:24;17.20;81.70
17956;DHT22;27666;51.498;11.966;2023-06-05T04:56:14;17.30;81.50
17956;DHT22;27666;51.498;11.966;2023-06-05T04:59:00;17.50;81.10
17956;DHT22;27666;51.498;11.966;2023-06-05T05:01:49;17.80;80.50
17956;DHT22;27666;51.498;11.966;2023-06-05T05:04:56;18.00;80.10
17956;DHT22;27666;51.498;11.966;2023-06-05T05:07:42;18.40;79.20
17956;DHT22;27666;51.498;11.966;2023-06-05T05:10:29;18.60;78.40
17956;DHT22;27666;51.498;11.966;2023-06-05T05:13:15;18.90;77.30
17956;DHT22;27666;51.498;11.966;2023-06-05T05:16:02;19.10;76.80
17956;DHT22;27666;51.498;11.966;2023-06-05T05:18:50;19.40;75.60
17956;DHT22;27666;51.498;11.966;2023-06-05T05:21:36;19.60;75.20
17956;DHT22;27666;51.498;11.966;2023-06-05T05:24:24;19.90;74.40
17956;DHT22;27666;51.498;11.966;2023-06-05T05:27:11;20.40;73.30
17956;DHT22;27666;51.498;11.966;2023-06-05T05:29:57;20.80;72.40
17956;DHT22;27666;51.498;11.966;2023-06-05T05:32:44;21.20;71.60
17956;DHT22;27666;51.498;11.966;2023-06-05T05:38:19;22.50;68.60
17956;DHT22;27666;51.498;11.966;2023-06-05T05:41:06;23.20;68.20
17956;DHT22;27666;51.498;11.966;2023-06-05T05:43:53;23.90;66.90
17956;DHT22;27666;51.498;11.966;2023-06-05T05:46:39;24.50;65.40
17956;DHT22;27666;51.498;11.966;2023-06-05T05:49:25;25.30;64.20
17956;DHT22;27666;51.498;11.966;2023-06-05T05:52:13;26.10;62.50
17956;DHT22;27666;51.498;11.966;2023-06-05T05:55:00;26.60;61.00
17956;DHT22;27666;51.498;11.966;2023-06-05T05:57:48;27.20;60.00
17956;DHT22;27666;51.498;11.966;2023-06-05T06:00:35;27.70;58.80
17956;DHT22;27666;51.498;11.966;2023-06-05T06:03:21;28.00;58.20
17956;DHT22;27666;51.498;11.966;2023-06-05T06:06:09;28.70;57.50
17956;DHT22;27666;51.498;11.966;2023-06-05T06:08:57;28.90;56.70
17956;DHT22;27666;51.498;11.966;2023-06-05T06:11:43;28.80;56.00
17956;DHT22;27666;51.498;11.966;2023-06-05T06:14:30;28.90;56.20
17956;DHT22;27666;51.498;11.966;2023-06-05T06:17:16;29.20;56.10
17956;DHT22;27666;51.498;11.966;2023-06-05T06:20:04;29.50;55.80
17956;DHT22;27666;51.498;11.966;2023-06-05T06:22:51;29.90;55.20
17956;DHT22;27666;51.498;11.966;2023-06-05T06:25:39;30.10;54.90
17956;DHT22;27666;51.498;11.966;2023-06-05T06:28:26;30.20;54.40
17956;DHT22;27666;51.498;11.966;2023-06-05T06:31:12;30.30;53.80
17956;DHT22;27666;51.498;11.966;2023-06-05T06:33:59;30.60;53.50
17956;DHT22;27666;51.498;11.966;2023-06-05T06:36:45;30.70;53.50
17956;DHT22;27666;51.498;11.966;2023-06-05T06:39:31;30.70;52.90
17956;DHT22;27666;51.498;11.966;2023-06-05T06:42:19;30.50;51.70
17956;DHT22;27666;51.498;11.966;2023-06-05T06:45:10;30.30;52.50
17956;DHT22;27666;51.498;11.966;2023-06-05T06:47:56;30.00;51.90
17956;DHT22;27666;51.498;11.966;2023-06-05T06:50:53;30.10;52.30
17956;DHT22;27666;51.498;11.966;2023-06-05T06:53:39;30.30;52.30
17956;DHT22;27666;51.498;11.966;2023-06-05T06:56:27;30.60;51.60
17956;DHT22;27666;51.498;11.966;2023-06-05T06:59:14;30.60;50.40
17956;DHT22;27666;51.498;11.966;2023-06-05T07:02:09;30.70;50.80
17956;DHT22;27666;51.498;11.966;2023-06-05T07:04:56;30.90;51.20
17956;DHT22;27666;51.498;11.966;2023-06-05T07:07:42;30.90;48.90
17956;DHT22;27666;51.498;11.966;2023-06-05T07:10:29;30.60;50.50
17956;DHT22;27666;51.498;11.966;2023-06-05T07:13:15;30.60;50.40
17956;DHT22;27666;51.498;11.966;2023-06-05T07:16:03;31.00;49.60
17956;DHT22;27666;51.498;11.966;2023-06-05T07:18:50;30.90;48.40
17956;DHT22;27666;51.498;11.966;2023-06-05T07:21:37;30.60;48.00
17956;DHT22;27666;51.498;11.966;2023-06-05T07:27:11;30.30;46.90
17956;DHT22;27666;51.498;11.966;2023-06-05T07:29:57;29.80;48.10
17956;DHT22;27666;51.498;11.966;2023-06-05T07:32:46;29.50;48.40
17956;DHT22;27666;51.498;11.966;2023-06-05T07:35:32;29.40;48.90
17956;DHT22;27666;51.498;11.966;2023-06-05T07:38:20;29.00;49.70
17956;DHT22;27666;51.498;11.966;2023-06-05T07:41:08;28.30;50.00
17956;DHT22;27666;51.498;11.966;2023-06-05T07:43:55;28.20;50.40
17956;DHT22;27666;51.498;11.966;2023-06-05T07:46:42;27.70;51.20
17956;DHT22;27666;51.498;11.966;2023-06-05T07:49:31;27.40;51.60
17956;DHT22;27666;51.498;11.966;2023-06-05T07:52:18;27.20;52.40
17956;DHT22;27666;51.498;11.966;2023-06-05T07:55:05;27.20;52.50
17956;DHT22;27666;51.498;11.966;2023-06-05T07:57:54;26.90;53.80
17956;DHT22;27666;51.498;11.966;2023-06-05T08:00:40;27.00;54.70
17956;DHT22;27666;51.498;11.966;2023-06-05T08:03:33;26.90;55.00
17956;DHT22;27666;51.498;11.966;2023-06-05T08:06:21;27.00;53.90
17956;DHT22;27666;51.498;11.966;2023-06-05T08:09:09;26.80;54.90
17956;DHT22;27666;51.498;11.966;2023-06-05T08:11:56;26.90;55.00
17956;DHT22;27666;51.498;11.966;2023-06-05T08:14:42;26.80;53.80
17956;DHT22;27666;51.498;11.966;2023-06-05T08:17:29;26.60;54.40
17956;DHT22;27666;51.498;11.966;2023-06-05T08:20:15;26.80;54.50
17956;DHT22;27666;51.498;11.966;2023-06-05T08:23:03;26.80;54.40
17956;DHT22;27666;51.498;11.966;2023-06-05T08:25:54;26.70;53.80
17956;DHT22;27666;51.498;11.966;2023-06-05T08:28:41;26.60;53.60
17956;DHT22;27666;51.498;11.966;2023-06-05T08:31:27;26.60;53.80
17956;DHT22;27666;51.498;11.966;2023-06-05T08:34:14;26.60;54.30
17956;DHT22;27666;51.498;11.966;2023-06-05T08:37:00;26.50;54.80
17956;DHT22;27666;51.498;11.966;2023-06-05T08:39:48;26.10;55.80
17956;DHT22;27666;51.498;11.966;2023-06-05T08:42:36;25.50;56.00
17956;DHT22;27666;51.498;11.966;2023-06-05T08:45:23;25.10;56.90
17956;DHT22;27666;51.498;11.966;2023-06-05T08:48:13;24.80;57.70
17956;DHT22;27666;51.498;11.966;2023-06-05T08:51:02;24.90;57.00
17956;DHT22;27666;51.498;11.966;2023-06-05T08:53:52;24.70;57.20
17956;DHT22;27666;51.498;11.966;2023-06-05T08:56:43;24.40;56.70
17956;DHT22;27666;51.498;11.966;2023-06-05T08:59:30;24.10;55.00
17956;DHT22;27666;51.498;11.966;2023-06-05T09:02:16;23.80;54.10
17956;DHT22;27666;51.498;11.966;2023-06-05T09:05:03;23.70;55.30
17956;DHT22;27666;51.498;11.966;2023-06-05T09:07:49;24.20;54.00
17956;DHT22;27666;51.498;11.966;2023-06-05T09:10:36;24.70;53.70
17956;DHT22;27666;51.498;11.966;2023-06-05T09:13:24;25.10;53.20
17956;DHT22;27666;51.498;11.966;2023-06-05T09:16:11;25.60;52.60
17956;DHT22;27666;51.498;11.966;2023-06-05T09:18:58;26.40;50.90
17956;DHT22;27666;51.498;11.966;2023-06-05T09:21:51;26.70;50.00
17956;DHT22;27666;51.498;11.966;2023-06-05T09:24:39;26.30;50.00
17956;DHT22;27666;51.498;11.966;2023-06-05T09:27:26;26.30;50.60
17956;DHT22;27666;51.498;11.966;2023-06-05T09:30:14;26.70;50.80
17956;DHT22;27666;51.498;11.966;2023-06-05T09:33:08;27.00;48.70
17956;DHT22;27666;51.498;11.966;2023-06-05T09:36:02;26.70;49.60
17956;DHT22;27666;51.498;11.966;2023-06-05T09:38:50;26.70;49.70
17956;DHT22;27666;51.498;11.966;2023-06-05T09:41:41;26.90;48.90
17956;DHT22;27666;51.498;11.966;2023-06-05T09:44:30;26.50;49.30
17956;DHT22;27666;51.498;11.966;2023-06-05T09:47:21;26.30;47.80
17956;DHT22;27666;51.498;11.966;2023-06-05T09:50:21;26.00;47.00
17956;DHT22;27666;51.498;11.966;2023-06-05T09:53:09;25.80;47.40
17956;DHT22;27666;51.498;11.966;2023-06-05T09:55:56;25.60;47.30
17956;DHT22;27666;51.498;11.966;2023-06-05T09:58:44;25.60;47.30
17956;DHT22;27666;51.498;11.966;2023-06-05T10:01:34;25.40;47.90
17956;DHT22;27666;51.498;11.966;2023-06-05T10:04:23;25.30;48.60
17956;DHT22;27666;51.498;11.966;2023-06-05T10:07:10;25.10;48.10
17956;DHT22;27666;51.498;11.966;2023-06-05T10:09:57;24.90;48.50
17956;DHT22;27666;51.498;11.966;2023-06-05T10:12:44;24.70;49.70
17956;DHT22;27666;51.498;11.966;2023-06-05T10:15:32;25.00;49.80
17956;DHT22;27666;51.498;11.966;2023-06-05T10:18:18;25.50;49.30
17956;DHT22;27666;51.498;11.966;2023-06-05T10:21:07;26.10;48.70
17956;DHT22;27666;51.498;11.966;2023-06-05T10:23:57;26.50;49.00
17956;DHT22;27666;51.498;11.966;2023-06-05T10:27:15;27.10;48.00
17956;DHT22;27666;51.498;11.966;2023-06-05T10:30:25;27.40;48.10
17956;DHT22;27666;51.498;11.966;2023-06-05T10:33:25;27.40;47.20
17956;DHT22;27666;51.498;11.966;2023-06-05T10:36:36;27.20;46.90
17956;DHT22;27666;51.498;11.966;2023-06-05T10:39:28;27.40;47.50
17956;DHT22;27666;51.498;11.966;2023-06-05T10:42:22;27.10;47.00
17956;DHT22;27666;51.498;11.966;2023-06-05T10:45:09;26.80;47.30
17956;DHT22;27666;51.498;11.966;2023-06-05T10:47:56;26.40;47.70
17956;DHT22;27666;51.498;11.966;2023-06-05T10:50:43;26.30;47.50
17956;DHT22;27666;51.498;11.966;2023-06-05T10:53:45;26.20;47.40
17956;DHT22;27666;51.498;11.966;2023-06-05T10:57:00;26.20;47.00
17956;DHT22;27666;51.498;11.966;2023-06-05T11:00:05;26.00;47.30
17956;DHT22;27666;51.498;11.966;2023-06-05T11:02:52;25.80;47.20
17956;DHT22;27666;51.498;11.966;2023-06-05T11:06:11;25.30;48.20
17956;DHT22;27666;51.498;11.966;2023-06-05T11:09:11;24.90;49.20
17956;DHT22;27666;51.498;11.966;2023-06-05T11:12:00;25.00;49.80
17956;DHT22;27666;51.498;11.966;2023-06-05T11:14:47;25.20;49.60
17956;DHT22;27666;51.498;11.966;2023-06-05T11:17:35;25.50;49.60
17956;DHT22;27666;51.498;11.966;2023-06-05T11:24:14;25.60;49.40
17956;DHT22;27666;51.498;11.966;2023-06-05T11:27:01;25.40;49.30
17956;DHT22;27666;51.498;11.966;2023-06-05T11:29:49;25.00;49.60
17956;DHT22;27666;51.498;11.966;2023-06-05T11:32:38;24.70;49.40
17956;DHT22;27666;51.498;11.966;2023-06-05T11:35:25;24.60;50.00
17956;DHT22;27666;51.498;11.966;2023-06-05T11:38:14;24.70;49.50
17956;DHT22;27666;51.498;11.966;2023-06-05T11:41:08;24.70;49.40
17956;DHT22;27666;51.498;11.966;2023-06-05T11:43:55;24.60;50.10
17956;DHT22;27666;51.498;11.966;2023-06-05T11:46:43;24.50;49.70
17956;DHT22;27666;51.498;11.966;2023-06-05T11:49:30;24.60;49.50
17956;DHT22;27666;51.498;11.966;2023-06-05T11:52:18;24.70;50.10
17956;DHT22;27666;51.498;11.966;2023-06-05T11:55:12;24.80;49.60
17956;DHT22;27666;51.498;11.966;2023-06-05T11:58:01;24.60;49.40
17956;DHT22;27666;51.498;11.966;2023-06-05T12:00:48;24.50;49.90
17956;DHT22;27666;51.498;11.966;2023-06-05T12:03:35;24.50;50.30
17956;DHT22;27666;51.498;11.966;2023-06-05T12:06:23;24.70;50.40
17956;DHT22;27666;51.498;11.966;2023-06-05T12:09:10;24.70;49.90
17956;DHT22;27666;51.498;11.966;2023-06-05T12:12:07;24.80;49.80
17956;DHT22;27666;51.498;11.966;2023-06-05T12:14:55;24.90;49.80
17956;DHT22;27666;51.498;11.966;2023-06-05T12:17:49;24.90;49.70
17956;DHT22;27666;51.498;11.966;2023-06-05T12:20:38;24.90;49.20
17956;DHT22;27666;51.498;11.966;2023-06-05T12:23:25;25.10;50.00
17956;DHT22;27666;51.498;11.966;2023-06-05T12:26:12;25.20;50.10
17956;DHT22;27666;51.498;11.966;2023-06-05T12:29:05;25.30;49.70
17956;DHT22;27666;51.498;11.966;2023-06-05T12:31:53;25.30;49.40
17956;DHT22;27666;51.498;11.966;2023-06-05T12:34:42;25.30;49.20
17956;DHT22;27666;51.498;11.966;2023-06-05T12:37:34;25.20;49.70
17956;DHT22;27666;51.498;11.966;2023-06-05T12:40:22;25.00;50.30
17956;DHT22;27666;51.498;11.966;2023-06-05T12:43:21;24.80;50.10
17956;DHT22;27666;51.498;11.966;2023-06-05T12:46:08;24.70;50.10
17956;DHT22;27666;51.498;11.966;2023-06-05T12:48:55;24.50;50.10
17956;DHT22;27666;51.498;11.966;2023-06-05T12:51:43;24.50;50.30
17956;DHT22;27666;51.498;11.966;2023-06-05T12:54:29;24.60;50.40
17956;DHT22;27666;51.498;11.966;2023-06-05T12:57:16;24.60;50.30
17956;DHT22;27666;51.498;11.966;2023-06-05T13:00:07;24.60;49.40
17956;DHT22;27666;51.498;11.966;2023-06-05T13:02:58;24.60;50.00
17956;DHT22;27666;51.498;11.966;2023-06-05T13:05:46;24.60;50.10
17956;DHT22;27666;51.498;11.966;2023-06-05T13:08:33;24.40;49.90
17956;DHT22;27666;51.498;11.966;2023-06-05T13:11:19;24.50;49.80
17956;DHT22;27666;51.498;11.966;2023-06-05T13:14:06;24.50;49.30
17956;DHT22;27666;51.498;11.966;2023-06-05T13:16:52;24.40;49.50
17956;DHT22;27666;51.498;11.966;2023-06-05T13:19:39;24.30;49.20
17956;DHT22;27666;51.498;11.966;2023-06-05T13:22:27;24.40;49.50
17956;DHT22;27666;51.498;11.966;2023-06-05T13:25:13;24.50;49.30
17956;DHT22;27666;51.498;11.966;2023-06-05T13:27:59;24.60;49.10
17956;DHT22;27666;51.498;11.966;2023-06-05T13:30:46;24.50;49.40
17956;DHT22;27666;51.498;11.966;2023-06-05T13:33:32;24.70;50.00
17956;DHT22;27666;51.498;11.966;2023-06-05T13:36:19;24.70;49.20
17956;DHT22;27666;51.498;11.966;2023-06-05T13:39:07;24.70;49.10
17956;DHT22;27666;51.498;11.966;2023-06-05T13:41:55;24.70;49.10
17956;DHT22;27666;51.498;11.966;2023-06-05T13:44:42;24.50;49.50
17956;DHT22;27666;51.498;11.966;2023-06-05T13:47:28;24.60;49.00
17956;DHT22;27666;51.498;11.966;2023-06-05T13:50:14;24.60;49.20
17956;DHT22;27666;51.498;11.966;2023-06-05T13:53:01;24.50;49.40
17956;DHT22;27666;51.498;11.966;2023-06-05T13:55:49;24.50;49.50
17956;DHT22;27666;51.498;11.966;2023-06-05T13:58:35;24.40;49.70
17956;DHT22;27666;51.498;11.966;2023-06-05T14:01:22;24.50;49.90
17956;DHT22;27666;51.498;11.966;2023-06-05T14:04:09;24.80;49.30
17956;DHT22;27666;51.498;11.966;2023-06-05T14:06:55;24.70;48.70
17956;DHT22;27666;51.498;11.966;2023-06-05T14:09:44;24.70;49.20
17956;DHT22;27666;51.498;11.966;2023-06-05T14:12:31;24.70;48.90
17956;DHT22;27666;51.498;11.966;2023-06-05T14:15:19;24.70;50.00
17956;DHT22;27666;51.498;11.966;2023-06-05T14:18:06;24.90;49.60
17956;DHT22;27666;51.498;11.966;2023-06-05T14:20:55;25.00;49.70
17956;DHT22;27666;51.498;11.966;2023-06-05T14:23:42;25.30;50.50
17956;DHT22;27666;51.498;11.966;2023-06-05T14:26:28;25.50;49.80
17956;DHT22;27666;51.498;11.966;2023-06-05T14:29:17;25.70;49.00
17956;DHT22;27666;51.498;11.966;2023-06-05T14:32:04;25.70;48.00
17956;DHT22;27666;51.498;11.966;2023-06-05T14:34:50;25.50;47.90
17956;DHT22;27666;51.498;11.966;2023-06-05T14:37:37;25.30;48.20
17956;DHT22;27666;51.498;11.966;2023-06-05T14:40:23;25.20;48.20
17956;DHT22;27666;51.498;11.966;2023-06-05T14:43:10;25.20;48.00
17956;DHT22;27666;51.498;11.966;2023-06-05T14:45:58;25.10;47.70
17956;DHT22;27666;51.498;11.966;2023-06-05T14:48:45;25.00;47.90
17956;DHT22;27666;51.498;11.966;2023-06-05T14:51:32;24.80;47.90
17956;DHT22;27666;51.498;11.966;2023-06-05T14:54:18;24.70;47.70
17956;DHT22;27666;51.498;11.966;2023-06-05T14:57:05;24.50;48.00
17956;DHT22;27666;51.498;11.966;2023-06-05T14:59:52;24.40;48.50
17956;DHT22;27666;51.498;11.966;2023-06-05T15:02:40;24.40;49.00
17956;DHT22;27666;51.498;11.966;2023-06-05T15:05:26;24.40;49.70
17956;DHT22;27666;51.498;11.966;2023-06-05T15:08:13;24.30;50.00
17956;DHT22;27666;51.498;11.966;2023-06-05T15:10:59;24.10;50.40
17956;DHT22;27666;51.498;11.966;2023-06-05T15:13:46;24.10;50.40
17956;DHT22;27666;51.498;11.966;2023-06-05T15:16:32;24.10;50.80
17956;DHT22;27666;51.498;11.966;2023-06-05T15:19:28;24.10;50.40
17956;DHT22;27666;51.498;11.966;2023-06-05T15:22:14;24.10;50.80
17956;DHT22;27666;51.498;11.966;2023-06-05T15:25:01;24.10;49.30
17956;DHT22;27666;51.498;11.966;2023-06-05T15:27:48;24.20;50.00
17956;DHT22;27666;51.498;11.966;2023-06-05T15:30:36;24.20;49.00
17956;DHT22;27666;51.498;11.966;2023-06-05T15:33:23;24.10;49.10
17956;DHT22;27666;51.498;11.966;2023-06-05T15:36:10;24.10;49.30
17956;DHT22;27666;51.498;11.966;2023-06-05T15:38:57;24.00;49.20
17956;DHT22;27666;51.498;11.966;2023-06-05T15:41:43;24.00;49.30
17956;DHT22;27666;51.498;11.966;2023-06-05T15:44:30;24.10;49.70
17956;DHT22;27666;51.498;11.966;2023-06-05T15:47:17;24.20;49.70
17956;DHT22;27666;51.498;11.966;2023-06-05T15:50:04;24.30;49.10
17956;DHT22;27666;51.498;11.966;2023-06-05T15:52:52;24.30;50.30
17956;DHT22;27666;51.498;11.966;2023-06-05T15:55:40;24.20;49.60
17956;DHT22;27666;51.498;11.966;2023-06-05T15:58:27;24.30;49.30
17956;DHT22;27666;51.498;11.966;2023-06-05T16:01:13;24.30;49.50
17956;DHT22;27666;51.498;11.966;2023-06-05T16:04:00;24.30;49.30
17956;DHT22;27666;51.498;11.966;2023-06-05T16:06:46;24.20;49.50
17956;DHT22;27666;51.498;11.966;2023-06-05T16:09:35;24.30;48.80
17956;DHT22;27666;51.498;11.966;2023-06-05T16:12:21;24.30;49.10
17956;DHT22;27666;51.498;11.966;2023-06-05T16:15:08;24.50;49.50
17956;DHT22;27666;51.498;11.966;2023-06-05T16:17:55;24.60;49.00
17956;DHT22;27666;51.498;11.966;2023-06-05T16:20:42;24.60;47.90
17956;DHT22;27666;51.498;11.966;2023-06-05T16:23:28;24.60;48.10
17956;DHT22;27666;51.498;11.966;2023-06-05T16:26:16;24.70;47.60
17956;DHT22;27666;51.498;11.966;2023-06-05T16:29:03;24.80;47.90
17956;DHT22;27666;51.498;11.966;2023-06-05T16:31:49;24.80;47.80
17956;DHT22;27666;51.498;11.966;2023-06-05T16:34:36;24.90;48.00
17956;DHT22;27666;51.498;11.966;2023-06-05T16:37:23;25.00;48.30
17956;DHT22;27666;51.498;11.966;2023-06-05T16:40:14;25.10;47.20
17956;DHT22;27666;51.498;11.966;2023-06-05T16:43:02;25.20;47.10
17956;DHT22;27666;51.498;11.966;2023-06-05T16:45:48;25.20;47.60
17956;DHT22;27666;51.498;11.966;2023-06-05T16:48:35;25.20;46.90
17956;DHT22;27666;51.498;11.966;2023-06-05T16:51:21;25.20;46.90
17956;DHT22;27666;51.498;11.966;2023-06-05T16:54:08;25.20;46.60
17956;DHT22;27666;51.498;11.966;2023-06-05T16:56:57;25.20;46.70
17956;DHT22;27666;51.498;11.966;2023-06-05T16:59:45;25.20;46.20
17956;DHT22;27666;51.498;11.966;2023-06-05T17:02:31;25.20;46.10
17956;DHT22;27666;51.498;11.966;2023-06-05T17:05:18;25.20;46.80
17956;DHT22;27666;51.498;11.966;2023-06-05T17:08:05;25.10;46.80
17956;DHT22;27666;51.498;11.966;2023-06-05T17:10:52;25.10;47.40
17956;DHT22;27666;51.498;11.966;2023-06-05T17:13:40;25.30;47.20
17956;DHT22;27666;51.498;11.966;2023-06-05T17:16:28;25.20;46.50
17956;DHT22;27666;51.498;11.966;2023-06-05T17:19:15;25.20;47.30
17956;DHT22;27666;51.498;11.966;2023-06-05T17:22:02;25.10;46.90
17956;DHT22;27666;51.498;11.966;2023-06-05T17:24:48;25.00;46.80
17956;DHT22;27666;51.498;11.966;2023-06-05T17:27:37;24.90;47.20
17956;DHT22;27666;51.498;11.966;2023-06-05T17:30:23;24.90;47.80
17956;DHT22;27666;51.498;11.966;2023-06-05T17:33:11;24.90;48.00
17956;DHT22;27666;51.498;11.966;2023-06-05T17:35:58;24.80;48.00